Time;durP1;ratioP1;P1;durP2;ratioP2;P2;SDS_P1;SDS_P2;PMS_P1;PMS_P2;Temp;Humidity;BMP_temperature;BMP_pressure;BME280_temperature;BME280_humidity;BME280_pressure;Samples;Min_cycle;Max_cycle;Signal;HPM_P1;HPM_P2
2022/01/22 00:00:41;;;;;;;14.85;9.55;;;4.70;99.90;;;;;;5051582;28;20220;-72
2022/01/22 00:03:27;;;;;;;26.75;10.50;;;4.70;99.90;;;;;;5061073;28;20624;-73
2022/01/22 00:06:14;;;;;;;16.48;9.50;;;4.70;99.90;;;;;;5062532;28;20232;-72
2022/01/22 00:09:00;;;;;;;13.95;9.90;;;4.70;99.90;;;;;;5056229;28;20279;-71
2022/01/22 00:11:52;;;;;;;15.65;10.45;;;4.70;99.90;;;;;;5055192;28;20978;-73
2022/01/22 00:14:39;;;;;;;17.08;9.20;;;4.70;99.90;;;;;;5047909;28;20335;-72
2022/01/22 00:17:24;;;;;;;15.43;10.60;;;4.80;99.90;;;;;;5063078;28;20200;-73
2022/01/22 00:20:11;;;;;;;15.13;10.63;;;4.70;99.90;;;;;;5059242;28;20209;-72
2022/01/22 00:22:59;;;;;;;14.18;10.77;;;4.70;99.90;;;;;;5045946;28;20690;-72
2022/01/22 00:25:44;;;;;;;15.27;10.65;;;4.70;99.90;;;;;;5056573;28;20299;-73
2022/01/22 00:28:30;;;;;;;13.60;9.95;;;4.70;99.90;;;;;;5052320;28;20251;-73
2022/01/22 00:31:15;;;;;;;17.95;10.32;;;4.80;99.90;;;;;;5062576;28;20692;-72
2022/01/22 00:34:01;;;;;;;15.80;10.77;;;4.80;99.90;;;;;;5052021;28;20604;-72
2022/01/22 00:36:46;;;;;;;19.17;10.52;;;4.70;99.90;;;;;;5054212;28;20221;-72
2022/01/22 00:39:34;;;;;;;19.48;10.38;;;4.80;99.90;;;;;;5057491;28;20575;-72
2022/01/22 00:42:22;;;;;;;15.88;10.63;;;4.90;99.90;;;;;;5063892;28;20776;-72
2022/01/22 00:45:09;;;;;;;17.95;10.48;;;4.90;99.90;;;;;;5066139;28;20270;-72
2022/01/22 00:47:54;;;;;;;17.60;10.43;;;4.90;99.90;;;;;;5050848;28;20241;-72
2022/01/22 00:50:40;;;;;;;14.35;10.93;;;5.00;99.90;;;;;;5046095;28;20208;-71
2022/01/22 00:53:26;;;;;;;14.20;9.80;;;4.90;99.90;;;;;;5055665;28;20671;-69
2022/01/22 00:56:13;;;;;;;14.98;9.80;;;4.90;99.90;;;;;;5062233;28;20224;-72
2022/01/22 00:58:59;;;;;;;13.93;9.27;;;4.90;99.90;;;;;;5047788;28;20321;-73
2022/01/22 01:01:45;;;;;;;16.92;10.68;;;4.90;99.90;;;;;;5059477;28;20227;-72
2022/01/22 01:04:33;;;;;;;18.20;11.25;;;4.90;99.90;;;;;;5054309;28;20408;-72
2022/01/22 01:07:19;;;;;;;20.92;12.20;;;4.80;99.90;;;;;;5058245;28;20224;-70
2022/01/22 01:10:05;;;;;;;15.80;10.70;;;4.80;99.90;;;;;;5048018;28;20392;-72
2022/01/22 01:12:52;;;;;;;15.75;9.90;;;4.70;99.90;;;;;;5065588;28;20799;-72
2022/01/22 01:15:42;;;;;;;21.50;10.38;;;4.80;99.90;;;;;;5055157;28;20247;-72
2022/01/22 01:34:11;;;;;;;18.02;10.10;;;4.90;99.90;;;;;;5003329;28;20199;-71
2022/01/22 01:36:57;;;;;;;16.05;10.02;;;5.00;99.90;;;;;;4999263;28;20354;-72
2022/01/22 01:39:44;;;;;;;16.42;9.32;;;5.00;99.90;;;;;;5045696;28;20279;-72
2022/01/22 01:42:36;;;;;;;17.38;10.00;;;5.00;99.90;;;;;;5050297;28;20208;-72
2022/01/22 01:45:22;;;;;;;14.48;9.65;;;4.90;99.90;;;;;;5060264;28;20224;-72
2022/01/22 01:48:15;;;;;;;12.98;8.85;;;4.90;99.90;;;;;;5052634;28;20278;-72
2022/01/22 01:51:01;;;;;;;16.67;9.48;;;4.90;99.90;;;;;;5051442;28;20562;-72
2022/01/22 01:53:55;;;;;;;14.07;9.25;;;4.80;99.90;;;;;;5053162;28;20227;-72
2022/01/22 01:59:46;;;;;;;18.83;9.10;;;4.70;99.90;;;;;;5048735;28;20235;-72
2022/01/22 02:02:33;;;;;;;17.92;10.43;;;4.80;99.90;;;;;;5055863;28;20282;-72
2022/01/22 02:05:23;;;;;;;13.73;9.02;;;4.80;99.90;;;;;;5053835;28;20223;-73
2022/01/22 02:08:09;;;;;;;14.88;9.77;;;4.80;99.90;;;;;;5061829;28;20228;-73
2022/01/22 02:10:59;;;;;;;14.68;9.80;;;4.90;99.90;;;;;;5052515;28;20223;-72
2022/01/22 02:13:59;;;;;;;21.27;9.32;;;4.90;99.90;;;;;;5055219;28;20203;-72
2022/01/22 02:25:57;;;;;;;18.10;9.55;;;4.80;99.90;;;;;;5060099;28;20228;-73
2022/01/22 02:28:47;;;;;;;21.52;8.77;;;4.90;99.90;;;;;;5045280;28;20227;-72
2022/01/22 02:31:38;;;;;;;13.73;8.40;;;4.90;99.90;;;;;;5050377;28;20678;-71
2022/01/22 02:34:33;;;;;;;19.67;10.10;;;4.90;99.90;;;;;;5042847;28;20259;-72
2022/01/22 02:37:21;;;;;;;17.35;9.35;;;4.90;99.90;;;;;;5058904;28;20701;-72
2022/01/22 02:40:14;;;;;;;18.52;9.23;;;4.90;99.90;;;;;;5054180;28;20561;-72
2022/01/22 02:43:00;;;;;;;16.80;9.43;;;5.00;99.90;;;;;;5062484;28;20202;-72
2022/01/22 02:45:47;;;;;;;14.93;8.25;;;5.00;99.90;;;;;;5058233;28;20224;-72
2022/01/22 02:48:33;;;;;;;18.08;9.00;;;4.90;99.90;;;;;;5046973;28;20232;-70
2022/01/22 02:51:19;;;;;;;12.30;8.85;;;5.00;99.90;;;;;;5051641;28;20570;-72
2022/01/22 02:54:05;;;;;;;13.60;8.77;;;5.10;99.90;;;;;;5057007;28;20689;-73
2022/01/22 02:56:52;;;;;;;21.70;9.10;;;5.10;99.90;;;;;;5058912;28;20598;-72
2022/01/22 02:59:38;;;;;;;15.48;9.20;;;5.00;99.90;;;;;;5053535;28;20204;-72
2022/01/22 03:02:24;;;;;;;14.60;10.30;;;5.00;99.90;;;;;;5052018;28;20227;-73
2022/01/22 03:05:10;;;;;;;18.58;10.82;;;5.00;99.90;;;;;;5050941;28;20701;-73
2022/01/22 03:07:57;;;;;;;17.58;8.70;;;5.00;99.90;;;;;;5047232;28;20976;-72
2022/01/22 03:10:49;;;;;;;11.18;8.57;;;5.00;99.90;;;;;;5049254;28;20260;-72
2022/01/22 03:17:10;;;;;;;16.27;10.18;;;5.00;99.90;;;;;;5058038;28;20725;-72
2022/01/22 03:20:05;;;;;;;14.77;9.88;;;5.00;99.90;;;;;;5051735;28;20212;-73
2022/01/22 03:23:07;;;;;;;12.10;9.02;;;5.00;99.90;;;;;;5048742;28;20244;-71
2022/01/22 03:29:00;;;;;;;17.10;10.07;;;5.10;99.90;;;;;;5046554;28;20212;-72
2022/01/22 03:31:46;;;;;;;16.35;10.02;;;5.10;99.90;;;;;;5063296;28;20200;-73
2022/01/22 03:34:37;;;;;;;17.38;10.02;;;5.20;99.90;;;;;;5047010;28;20263;-72
2022/01/22 03:37:24;;;;;;;21.35;10.00;;;5.20;99.90;;;;;;5050396;28;20209;-72
2022/01/22 03:40:12;;;;;;;17.88;9.05;;;5.10;99.90;;;;;;5051524;28;20204;-73
2022/01/22 03:42:58;;;;;;;14.27;9.32;;;5.10;99.90;;;;;;5053577;28;20213;-72
2022/01/22 03:45:45;;;;;;;15.23;9.00;;;5.00;99.90;;;;;;5058605;28;20228;-72
2022/01/22 03:48:31;;;;;;;16.63;9.07;;;5.00;99.90;;;;;;5042956;28;20359;-72
2022/01/22 03:51:18;;;;;;;15.27;10.57;;;5.00;99.90;;;;;;5060232;28;20274;-72
2022/01/22 03:54:04;;;;;;;16.27;9.27;;;5.00;99.90;;;;;;5053498;28;20333;-72
2022/01/22 03:56:51;;;;;;;14.85;10.05;;;5.00;99.90;;;;;;5062202;28;20236;-72
2022/01/22 03:59:37;;;;;;;20.75;9.95;;;5.00;99.90;;;;;;5051206;28;20343;-72
2022/01/22 04:05:28;;;;;;;22.60;9.57;;;5.10;99.90;;;;;;5056059;28;20591;-72
2022/01/22 04:08:16;;;;;;;13.68;8.05;;;5.10;99.90;;;;;;5047332;28;20721;-70
2022/01/22 04:11:03;;;;;;;16.85;9.10;;;5.10;99.90;;;;;;5064269;28;20627;-72
2022/01/22 04:13:51;;;;;;;13.93;9.82;;;5.10;99.90;;;;;;5053912;28;20338;-72
2022/01/22 04:16:43;;;;;;;19.98;10.48;;;5.10;99.90;;;;;;5054624;28;20225;-72
2022/01/22 04:25:40;;;;;;;17.27;10.65;;;5.10;99.90;;;;;;5051853;28;20263;-73
2022/01/22 04:28:26;;;;;;;14.27;9.45;;;5.00;99.90;;;;;;5044735;28;20216;-72
2022/01/22 04:31:12;;;;;;;13.82;10.52;;;5.10;99.90;;;;;;5055149;28;20696;-72
2022/01/22 04:33:58;;;;;;;21.02;12.27;;;5.10;99.90;;;;;;5048987;28;20303;-72
2022/01/22 04:36:45;;;;;;;12.83;9.30;;;5.10;99.90;;;;;;5060875;28;20228;-72
2022/01/22 04:39:31;;;;;;;15.13;9.60;;;5.10;99.90;;;;;;5060766;28;20524;-72
2022/01/22 04:42:17;;;;;;;13.95;9.05;;;5.10;99.90;;;;;;5071754;28;20204;-72
2022/01/22 04:45:09;;;;;;;15.63;10.07;;;5.10;99.90;;;;;;5063229;28;20224;-72
2022/01/22 04:48:09;;;;;;;14.98;9.70;;;5.10;99.90;;;;;;5048663;28;20270;-71
2022/01/22 04:57:04;;;;;;;13.90;9.77;;;5.10;99.90;;;;;;5053248;28;20237;-71
2022/01/22 04:59:50;;;;;;;15.93;9.18;;;5.10;99.90;;;;;;5057987;28;20686;-73
2022/01/22 05:02:35;;;;;;;15.57;9.60;;;5.10;99.90;;;;;;5053154;28;20200;-72
2022/01/22 05:05:21;;;;;;;15.43;9.40;;;5.10;99.90;;;;;;5053046;28;20228;-73
2022/01/22 05:08:06;;;;;;;14.00;9.40;;;5.10;99.90;;;;;;5054864;28;20221;-73
2022/01/22 05:10:54;;;;;;;15.65;9.70;;;5.20;99.90;;;;;;5059456;28;20240;-72
2022/01/22 05:13:39;;;;;;;13.43;9.15;;;5.20;99.90;;;;;;5054738;28;20208;-72
2022/01/22 05:16:25;;;;;;;16.92;9.98;;;5.20;99.90;;;;;;5054683;28;20325;-72
2022/01/22 05:19:15;;;;;;;14.75;8.77;;;5.10;99.90;;;;;;5052091;28;20639;-73
2022/01/22 05:22:10;;;;;;;12.20;7.95;;;5.10;99.90;;;;;;5055717;28;20568;-73
2022/01/22 05:25:00;;;;;;;17.15;8.90;;;5.00;99.90;;;;;;5066255;28;20204;-73
2022/01/22 05:28:01;;;;;;;10.45;7.53;;;5.00;99.90;;;;;;5054468;28;20223;-73
2022/01/22 05:36:59;;;;;;;15.27;7.90;;;5.10;99.90;;;;;;5038447;28;20220;-72
2022/01/22 05:39:45;;;;;;;18.35;7.95;;;5.10;99.90;;;;;;5048953;28;20204;-72
2022/01/22 05:42:30;;;;;;;12.90;6.65;;;5.20;99.90;;;;;;5054362;28;20255;-72
2022/01/22 05:45:17;;;;;;;13.27;6.97;;;5.20;99.90;;;;;;5059501;28;20700;-73
2022/01/22 05:48:03;;;;;;;10.45;7.78;;;5.20;99.90;;;;;;5049057;28;20280;-73
2022/01/22 05:50:52;;;;;;;11.25;7.13;;;5.10;99.90;;;;;;5053139;28;20329;-72
2022/01/22 05:53:49;;;;;;;13.27;7.07;;;5.00;99.90;;;;;;5052141;28;20201;-73
2022/01/22 05:59:39;;;;;;;9.95;7.40;;;5.10;99.90;;;;;;5055975;28;20228;-73
2022/01/22 06:02:26;;;;;;;10.45;6.90;;;5.10;99.90;;;;;;5055457;28;20219;-73
2022/01/22 06:05:12;;;;;;;12.68;7.03;;;5.10;99.90;;;;;;5048024;28;20222;-73
2022/01/22 06:07:57;;;;;;;10.40;6.85;;;5.20;99.90;;;;;;5045024;28;20291;-72
2022/01/22 06:10:45;;;;;;;16.15;6.70;;;5.20;99.90;;;;;;5054222;28;20231;-71
2022/01/22 06:13:43;;;;;;;9.35;6.55;;;5.20;99.90;;;;;;5053317;28;20617;-73
2022/01/22 06:16:29;;;;;;;15.32;6.85;;;5.20;99.90;;;;;;5043900;28;20699;-73
2022/01/22 06:19:16;;;;;;;12.07;8.05;;;5.20;99.90;;;;;;5056208;28;20278;-73
2022/01/22 06:22:01;;;;;;;10.00;6.55;;;5.20;99.90;;;;;;5046803;28;20695;-73
2022/01/22 06:24:47;;;;;;;17.70;7.50;;;5.30;99.90;;;;;;5051396;28;20208;-73
2022/01/22 06:27:33;;;;;;;16.17;6.97;;;5.30;99.90;;;;;;5057563;28;20207;-73
2022/01/22 06:30:20;;;;;;;21.38;7.53;;;5.30;99.90;;;;;;5052394;28;20255;-70
2022/01/22 06:33:05;;;;;;;18.88;7.35;;;5.20;99.90;;;;;;5058985;28;20689;-72
2022/01/22 06:35:52;;;;;;;10.48;7.18;;;5.20;99.90;;;;;;5048572;28;20221;-72
2022/01/22 06:38:38;;;;;;;13.35;7.65;;;5.20;99.90;;;;;;5049731;28;20201;-72
2022/01/22 06:44:37;;;;;;;10.75;7.13;;;5.20;99.90;;;;;;5033989;28;20208;-71
2022/01/22 06:47:23;;;;;;;17.67;7.32;;;5.20;99.90;;;;;;5053998;28;20276;-72
2022/01/22 06:50:10;;;;;;;15.07;8.82;;;5.20;99.90;;;;;;5058122;28;20241;-72
2022/01/22 06:52:58;;;;;;;11.13;7.30;;;5.20;99.90;;;;;;5056303;28;20240;-72
2022/01/22 06:55:47;;;;;;;9.73;7.60;;;5.20;99.90;;;;;;5045070;28;20229;-72
2022/01/22 06:58:33;;;;;;;16.38;8.02;;;5.20;99.90;;;;;;5055750;28;20457;-72
2022/01/22 07:01:19;;;;;;;19.73;8.02;;;5.30;99.90;;;;;;5059468;28;20204;-72
2022/01/22 07:04:05;;;;;;;12.63;7.72;;;5.30;99.90;;;;;;5062560;28;20264;-71
2022/01/22 07:06:51;;;;;;;22.45;9.00;;;5.30;99.90;;;;;;5048537;28;20286;-71
2022/01/22 07:09:38;;;;;;;14.52;7.80;;;5.20;99.90;;;;;;5056900;28;20247;-71
2022/01/22 07:12:24;;;;;;;20.50;8.50;;;5.30;99.90;;;;;;5051730;28;20204;-72
2022/01/22 07:15:10;;;;;;;9.23;6.80;;;5.20;99.90;;;;;;5053980;28;20708;-72
2022/01/22 07:17:56;;;;;;;11.57;7.82;;;5.20;99.90;;;;;;5064040;28;20203;-72
2022/01/22 07:20:42;;;;;;;21.63;7.70;;;5.20;99.90;;;;;;5056971;28;20358;-72
2022/01/22 07:23:55;;;;;;;12.38;7.28;;;5.30;99.90;;;;;;5048389;28;20278;-71
2022/01/22 07:26:40;;;;;;;14.32;8.00;;;5.30;99.90;;;;;;5056289;28;20378;-72
2022/01/22 07:29:26;;;;;;;12.93;8.38;;;5.30;99.90;;;;;;5052284;28;20243;-72
2022/01/22 07:32:20;;;;;;;12.48;8.48;;;5.30;99.90;;;;;;5057553;28;20307;-72
2022/01/22 07:35:07;;;;;;;17.83;8.13;;;5.30;99.90;;;;;;5049523;28;20875;-72
2022/01/22 07:37:52;;;;;;;11.68;7.53;;;5.20;99.90;;;;;;5062614;28;20278;-72
2022/01/22 07:40:39;;;;;;;16.67;9.43;;;5.30;99.90;;;;;;5044556;28;20695;-72
2022/01/22 07:43:25;;;;;;;11.40;8.70;;;5.30;99.90;;;;;;5046594;28;20204;-72
2022/01/22 07:46:12;;;;;;;14.50;7.97;;;5.30;99.90;;;;;;5056337;28;20228;-71
2022/01/22 07:48:57;;;;;;;12.93;7.20;;;5.20;99.90;;;;;;5058666;28;20227;-72
2022/01/22 07:51:43;;;;;;;13.20;7.95;;;5.20;99.90;;;;;;5046041;28;20208;-72
2022/01/22 07:54:28;;;;;;;9.88;7.45;;;5.20;99.90;;;;;;5049356;28;20213;-71
2022/01/22 07:57:14;;;;;;;14.90;9.52;;;5.20;99.90;;;;;;5061070;28;20208;-72
2022/01/22 08:00:01;;;;;;;18.48;7.60;;;5.30;99.90;;;;;;5052201;28;20279;-72
2022/01/22 08:02:48;;;;;;;28.70;11.95;;;5.30;99.90;;;;;;5065067;28;20688;-71
2022/01/22 08:05:34;;;;;;;17.80;7.97;;;5.20;99.90;;;;;;5047583;28;20266;-72
2022/01/22 08:08:20;;;;;;;10.85;6.40;;;5.20;99.90;;;;;;5035123;28;20329;-71
2022/01/22 08:11:05;;;;;;;41.28;19.17;;;5.30;99.90;;;;;;5035285;28;20201;-71
2022/01/22 08:13:51;;;;;;;40.47;15.43;;;5.30;99.90;;;;;;5035751;28;20205;-72
2022/01/22 08:16:38;;;;;;;18.00;9.70;;;5.30;99.90;;;;;;5058943;28;20595;-71
2022/01/22 08:19:24;;;;;;;34.97;16.98;;;5.40;99.90;;;;;;5059713;28;20221;-71
2022/01/22 08:22:10;;;;;;;36.72;21.48;;;5.30;99.90;;;;;;5041562;28;20222;-72
2022/01/22 08:24:57;;;;;;;20.17;9.55;;;5.20;99.90;;;;;;5056029;28;20209;-72
2022/01/22 08:28:53;;;;;;;16.83;8.25;;;5.30;99.90;;;;;;5057684;28;20208;-71
2022/01/22 08:30:54;;;;;;;10.98;7.20;;;5.30;99.90;;;;;;5053601;28;20282;-72
2022/01/22 08:36:45;;;;;;;14.13;8.23;;;5.40;99.90;;;;;;5056061;28;20224;-72
2022/01/22 08:39:31;;;;;;;17.33;9.23;;;5.30;99.90;;;;;;5054674;28;20200;-72
2022/01/22 08:42:17;;;;;;;11.10;7.43;;;5.30;99.90;;;;;;5073259;28;20200;-72
2022/01/22 08:45:03;;;;;;;24.00;13.00;;;5.30;99.90;;;;;;5055988;28;20283;-72
2022/01/22 08:47:49;;;;;;;12.55;8.75;;;5.30;99.90;;;;;;5060827;28;20297;-72
2022/01/22 08:50:36;;;;;;;8.07;6.07;;;5.40;99.90;;;;;;5061111;28;20274;-72
2022/01/22 08:53:22;;;;;;;9.00;6.50;;;5.30;99.90;;;;;;5058307;28;20270;-72
2022/01/22 08:56:09;;;;;;;11.30;7.20;;;5.30;99.90;;;;;;5061610;28;20229;-72
2022/01/22 08:58:54;;;;;;;11.70;7.22;;;5.40;99.90;;;;;;5055196;28;20569;-71
2022/01/22 09:01:41;;;;;;;10.05;6.95;;;5.50;99.90;;;;;;5053860;28;20338;-71
2022/01/22 09:04:27;;;;;;;9.70;7.03;;;5.50;99.90;;;;;;5042912;28;20232;-72
2022/01/22 09:07:14;;;;;;;10.23;7.70;;;5.60;99.90;;;;;;5054729;28;20228;-72
2022/01/22 09:10:00;;;;;;;34.97;12.00;;;5.70;99.90;;;;;;5059417;28;20228;-71
2022/01/22 09:12:46;;;;;;;9.75;6.57;;;5.70;99.90;;;;;;5048839;28;20260;-72
2022/01/22 09:15:31;;;;;;;13.02;7.97;;;5.70;99.90;;;;;;5054601;28;20247;-72
2022/01/22 09:18:17;;;;;;;11.85;7.80;;;5.80;99.90;;;;;;5061746;28;20216;-72
2022/01/22 09:21:05;;;;;;;12.17;7.93;;;5.70;99.90;;;;;;5056711;28;20220;-72
2022/01/22 09:23:51;;;;;;;11.75;7.47;;;5.80;99.90;;;;;;5047487;28;20957;-72
2022/01/22 09:26:37;;;;;;;13.17;7.53;;;5.80;99.90;;;;;;5056221;28;20240;-71
2022/01/22 09:29:23;;;;;;;18.60;7.67;;;5.80;99.90;;;;;;5051811;28;20878;-71
2022/01/22 09:32:10;;;;;;;12.33;9.30;;;5.90;99.90;;;;;;5056215;28;20471;-71
2022/01/22 09:34:55;;;;;;;13.68;8.60;;;5.80;99.90;;;;;;5051933;28;20451;-72
2022/01/22 09:37:41;;;;;;;14.07;8.98;;;5.80;99.90;;;;;;5053224;28;20274;-71
2022/01/22 09:40:29;;;;;;;12.30;7.78;;;5.80;99.90;;;;;;5052687;28;20264;-72
2022/01/22 09:43:14;;;;;;;11.07;7.13;;;5.80;99.90;;;;;;5048853;28;20251;-70
2022/01/22 09:46:00;;;;;;;13.53;8.60;;;5.80;99.90;;;;;;5060790;28;20472;-71
2022/01/22 09:48:49;;;;;;;14.30;8.00;;;5.80;99.90;;;;;;5056581;28;20458;-71
2022/01/22 09:51:34;;;;;;;9.82;6.70;;;5.80;99.90;;;;;;5056614;28;20816;-72
2022/01/22 09:54:20;;;;;;;11.60;8.85;;;5.80;99.90;;;;;;5054279;28;20223;-72
2022/01/22 09:57:08;;;;;;;15.38;8.60;;;5.80;99.90;;;;;;5045130;28;20701;-72
2022/01/22 09:59:54;;;;;;;15.38;8.65;;;5.80;99.90;;;;;;5054490;28;20216;-72
2022/01/22 10:02:41;;;;;;;16.08;8.05;;;5.70;99.90;;;;;;5044179;28;20206;-72
2022/01/22 10:05:29;;;;;;;10.07;7.30;;;5.70;99.90;;;;;;5045142;28;20819;-71
2022/01/22 10:08:30;;;;;;;13.20;7.45;;;5.60;99.90;;;;;;5061855;28;20205;-72
2022/01/22 10:11:18;;;;;;;7.80;6.63;;;5.70;99.90;;;;;;5062743;28;20221;-71
2022/01/22 10:14:06;;;;;;;13.82;8.63;;;5.70;99.90;;;;;;5052531;28;20263;-72
2022/01/22 10:16:51;;;;;;;12.25;8.20;;;5.60;99.90;;;;;;5054279;28;20217;-72
2022/01/22 10:19:37;;;;;;;18.58;8.25;;;5.60;99.90;;;;;;5055763;28;20212;-71
2022/01/22 10:22:23;;;;;;;10.68;8.20;;;5.70;99.90;;;;;;5050660;28;20227;-73
2022/01/22 10:25:20;;;;;;;16.40;9.88;;;5.60;99.90;;;;;;5054729;28;20228;-72
2022/01/22 10:28:09;;;;;;;14.15;9.05;;;5.60;99.90;;;;;;5053185;28;20686;-72
2022/01/22 10:30:59;;;;;;;20.85;11.15;;;5.50;99.90;;;;;;5052240;28;20220;-72
2022/01/22 10:33:44;;;;;;;17.90;11.10;;;5.50;99.90;;;;;;5055048;28;20238;-72
2022/01/22 10:36:31;;;;;;;17.05;10.32;;;5.50;99.90;;;;;;5044520;28;20348;-72
2022/01/22 10:39:25;;;;;;;19.50;10.68;;;5.50;99.90;;;;;;5052372;28;20200;-72
2022/01/22 10:42:20;;;;;;;11.90;9.57;;;5.50;99.90;;;;;;5050039;28;20307;-72
2022/01/22 10:45:11;;;;;;;18.15;9.30;;;5.60;99.90;;;;;;5052287;28;20201;-72
2022/01/22 10:48:20;;;;;;;14.82;9.45;;;5.50;99.90;;;;;;5052320;28;20220;-71
2022/01/22 10:51:09;;;;;;;19.00;11.05;;;5.50;99.90;;;;;;5043113;28;20559;-72
2022/01/22 10:53:58;;;;;;;16.00;10.40;;;5.60;99.90;;;;;;5044907;28;20276;-71
2022/01/22 10:56:45;;;;;;;22.15;10.57;;;5.60;99.90;;;;;;5048512;28;20229;-72
2022/01/22 10:59:34;;;;;;;15.60;11.38;;;5.60;99.90;;;;;;5032270;28;20201;-71
2022/01/22 11:02:34;;;;;;;15.90;10.63;;;5.60;99.90;;;;;;5033079;28;20698;-71
2022/01/22 11:05:38;;;;;;;17.02;11.07;;;5.60;99.90;;;;;;5047135;28;20228;-72
2022/01/22 11:08:23;;;;;;;16.92;10.20;;;5.60;99.90;;;;;;5071588;28;20211;-72
2022/01/22 11:11:10;;;;;;;17.27;10.90;;;5.60;99.90;;;;;;5038866;28;20221;-71
2022/01/22 11:13:56;;;;;;;16.27;10.70;;;5.60;99.90;;;;;;5048513;28;20439;-71
2022/01/22 11:16:44;;;;;;;31.38;13.10;;;5.60;99.90;;;;;;5040054;28;20812;-71
2022/01/22 11:19:33;;;;;;;17.38;11.35;;;5.60;99.90;;;;;;5043349;28;20200;-71
2022/01/22 11:22:20;;;;;;;20.93;10.00;;;5.70;99.90;;;;;;5046056;28;20248;-71
2022/01/22 11:25:08;;;;;;;16.30;10.27;;;5.60;99.90;;;;;;5031477;28;20467;-71
2022/01/22 11:27:54;;;;;;;23.00;12.67;;;5.60;99.90;;;;;;5046033;28;21030;-72
2022/01/22 11:30:44;;;;;;;15.60;10.18;;;5.60;99.90;;;;;;5051488;28;20811;-71
2022/01/22 11:33:33;;;;;;;13.88;10.57;;;5.60;99.90;;;;;;5051440;28;20204;-71
2022/01/22 11:36:23;;;;;;;15.50;10.65;;;5.60;99.90;;;;;;5063173;28;20347;-71
2022/01/22 11:39:19;;;;;;;13.87;9.87;;;5.70;99.90;;;;;;5071616;28;20279;-71
2022/01/22 11:42:05;;;;;;;26.97;10.00;;;5.70;99.90;;;;;;5053375;28;20426;-70
2022/01/22 11:45:01;;;;;;;17.05;11.85;;;5.70;99.90;;;;;;5031667;28;20420;-71
2022/01/22 11:48:10;;;;;;;18.65;11.68;;;5.80;99.90;;;;;;5031746;28;20283;-71
2022/01/22 11:51:16;;;;;;;14.75;10.90;;;5.80;99.90;;;;;;5044257;28;20220;-72
2022/01/22 11:54:04;;;;;;;11.90;10.10;;;5.80;99.90;;;;;;5050468;28;20216;-72
2022/01/22 11:56:52;;;;;;;13.90;9.98;;;5.90;99.90;;;;;;5059650;28;20296;-71
2022/01/22 11:59:37;;;;;;;16.98;10.90;;;5.90;99.90;;;;;;5056812;28;20387;-72
2022/01/22 12:02:23;;;;;;;16.17;11.10;;;5.90;99.90;;;;;;5044305;28;20209;-71
2022/01/22 12:05:09;;;;;;;18.50;10.40;;;5.90;99.90;;;;;;5057635;28;20228;-72
2022/01/22 12:07:59;;;;;;;16.23;11.18;;;5.90;99.90;;;;;;5050929;28;20204;-71
2022/01/22 12:14:27;;;;;;;18.10;11.05;;;5.90;99.90;;;;;;5057444;28;20217;-71
2022/01/22 12:17:02;;;;;;;12.85;10.38;;;5.90;99.90;;;;;;5058892;28;20220;-71
2022/01/22 12:20:02;;;;;;;13.77;9.67;;;5.90;99.90;;;;;;5067012;28;20193;-72
2022/01/22 12:22:49;;;;;;;14.55;10.25;;;5.90;99.90;;;;;;5036805;28;21081;-72
2022/01/22 12:25:52;;;;;;;22.35;12.38;;;5.90;99.90;;;;;;5039715;28;20228;-72
2022/01/22 12:28:39;;;;;;;15.40;10.55;;;5.90;99.90;;;;;;5050487;28;20208;-72
2022/01/22 12:31:26;;;;;;;15.52;10.60;;;6.00;99.90;;;;;;5049870;28;20216;-72
2022/01/22 12:34:12;;;;;;;15.35;9.50;;;6.10;99.90;;;;;;5044605;28;20204;-72
2022/01/22 12:37:18;;;;;;;19.40;11.47;;;6.10;99.90;;;;;;5042295;28;20591;-72
2022/01/22 12:40:06;;;;;;;20.58;11.35;;;6.10;99.90;;;;;;5055390;28;21055;-72
2022/01/22 12:43:03;;;;;;;14.80;10.57;;;6.10;99.90;;;;;;5045976;28;20251;-72
2022/01/22 12:45:56;;;;;;;15.10;9.63;;;6.20;99.90;;;;;;5051691;28;20464;-72
2022/01/22 12:48:42;;;;;;;12.50;9.32;;;6.20;99.90;;;;;;5046654;28;20403;-72
2022/01/22 12:51:28;;;;;;;16.33;11.23;;;6.20;99.90;;;;;;5039211;28;20221;-72
2022/01/22 12:54:14;;;;;;;13.82;10.25;;;6.10;99.90;;;;;;5053627;28;20295;-72
2022/01/22 12:57:05;;;;;;;13.52;9.27;;;6.10;99.90;;;;;;5048201;28;20224;-72
2022/01/22 12:59:54;;;;;;;16.77;11.10;;;6.10;99.90;;;;;;5054465;28;20201;-72
2022/01/22 13:02:41;;;;;;;14.02;10.35;;;6.00;99.90;;;;;;5050931;28;20447;-72
2022/01/22 13:05:29;;;;;;;16.60;11.37;;;6.00;99.90;;;;;;5055318;28;20229;-72
2022/01/22 13:08:26;;;;;;;15.37;9.63;;;6.10;99.90;;;;;;5065083;28;20864;-72
2022/01/22 13:11:17;;;;;;;16.13;10.17;;;6.20;99.90;;;;;;5056038;28;20472;-72
2022/01/22 13:14:03;;;;;;;12.73;8.95;;;6.30;99.90;;;;;;5046141;28;20919;-72
2022/01/22 13:16:52;;;;;;;16.90;9.90;;;6.20;99.90;;;;;;5059125;28;20225;-73
2022/01/22 13:19:39;;;;;;;12.93;9.50;;;6.40;99.90;;;;;;5039219;28;20925;-72
2022/01/22 13:22:32;;;;;;;16.17;10.75;;;6.40;99.90;;;;;;5050434;28;20413;-72
2022/01/22 13:25:18;;;;;;;19.30;10.43;;;6.40;99.90;;;;;;5065481;28;20383;-72
2022/01/22 13:28:10;;;;;;;19.43;13.70;;;6.40;99.90;;;;;;5065052;28;20200;-71
2022/01/22 13:31:01;;;;;;;15.20;10.52;;;6.50;99.90;;;;;;5051252;28;21008;-71
2022/01/22 13:33:57;;;;;;;24.65;12.82;;;6.40;99.90;;;;;;5037611;28;20238;-71
2022/01/22 13:36:53;;;;;;;13.67;9.60;;;6.50;99.90;;;;;;5053149;28;20222;-72
2022/01/22 13:48:59;;;;;;;15.80;9.17;;;6.50;99.90;;;;;;5033402;28;20623;-70
2022/01/22 13:51:45;;;;;;;13.97;8.17;;;6.60;99.90;;;;;;5040149;28;20463;-70
2022/01/22 13:54:33;;;;;;;14.40;9.43;;;6.60;99.90;;;;;;5048446;28;20784;-70
2022/01/22 13:57:21;;;;;;;12.90;8.57;;;6.60;99.90;;;;;;5041749;28;20382;-71
2022/01/22 14:00:11;;;;;;;11.73;7.40;;;6.60;99.90;;;;;;5049318;28;20592;-70
2022/01/22 14:03:19;;;;;;;7.60;6.17;;;6.60;99.90;;;;;;5046755;28;20919;-70
2022/01/22 14:06:06;;;;;;;9.10;6.18;;;6.50;99.90;;;;;;5049651;28;20459;-70
2022/01/22 14:08:52;;;;;;;7.90;5.87;;;6.50;99.90;;;;;;5054413;28;20201;-70
2022/01/22 14:11:38;;;;;;;7.40;5.60;;;6.50;99.90;;;;;;5045304;28;20506;-70
2022/01/22 14:14:23;;;;;;;8.10;5.40;;;6.60;99.90;;;;;;5052204;28;20443;-70
2022/01/22 14:17:11;;;;;;;9.07;6.22;;;6.60;99.90;;;;;;5051094;28;20463;-70
2022/01/22 14:20:02;;;;;;;8.48;6.15;;;6.70;99.90;;;;;;5047318;28;20399;-70
2022/01/22 14:23:03;;;;;;;10.67;9.57;;;6.70;99.90;;;;;;5052835;28;20327;-69
2022/01/22 14:26:01;;;;;;;13.57;9.03;;;6.80;99.90;;;;;;5049403;28;20475;-70
2022/01/22 14:28:49;;;;;;;7.77;5.50;;;6.80;99.90;;;;;;5050039;28;20445;-70
2022/01/22 14:31:47;;;;;;;6.43;5.07;;;6.70;99.90;;;;;;5044284;28;20479;-70
2022/01/22 14:34:34;;;;;;;6.70;4.90;;;6.70;99.90;;;;;;5051551;28;20913;-70
2022/01/22 14:37:30;;;;;;;8.35;5.97;;;6.70;99.90;;;;;;5035412;28;20447;-71
2022/01/22 14:46:46;;;;;;;6.90;5.87;;;6.70;99.90;;;;;;4980123;28;20514;-71
2022/01/22 14:49:35;;;;;;;12.73;8.07;;;6.70;99.90;;;;;;5050382;28;20535;-72
2022/01/22 14:52:22;;;;;;;194.77;50.50;;;6.70;99.90;;;;;;5052996;28;20448;-71
2022/01/22 14:55:09;;;;;;;43.80;15.10;;;6.70;99.90;;;;;;5051923;28;20528;-71
2022/01/22 14:57:58;;;;;;;124.80;29.40;;;6.70;99.90;;;;;;5060354;28;20497;-71
2022/01/22 15:00:43;;;;;;;55.15;16.27;;;6.70;99.90;;;;;;5051940;28;20451;-71
2022/01/22 15:03:29;;;;;;;15.52;9.05;;;6.60;99.90;;;;;;5056571;28;20204;-71
2022/01/22 15:06:15;;;;;;;18.83;9.13;;;6.60;99.90;;;;;;5049506;28;20710;-72
2022/01/22 15:09:00;;;;;;;15.70;8.43;;;6.60;99.90;;;;;;5050040;28;20216;-72
2022/01/22 15:11:46;;;;;;;12.23;8.77;;;6.60;99.90;;;;;;5045700;28;20964;-72
2022/01/22 15:14:33;;;;;;;18.17;9.40;;;6.70;99.90;;;;;;5049603;28;20467;-72
2022/01/22 15:17:51;;;;;;;12.10;9.45;;;6.70;99.90;;;;;;5056937;28;21092;-71
2022/01/22 15:20:37;;;;;;;8.10;6.03;;;6.70;99.90;;;;;;5052443;28;20332;-72
2022/01/22 15:23:22;;;;;;;9.27;6.73;;;6.60;99.90;;;;;;5050302;28;20513;-71
2022/01/22 15:26:08;;;;;;;9.52;6.05;;;6.60;99.90;;;;;;5055980;28;20598;-72
2022/01/22 15:28:54;;;;;;;8.82;5.88;;;6.60;99.90;;;;;;5047670;28;20217;-71
2022/01/22 15:31:52;;;;;;;10.98;6.95;;;6.60;99.90;;;;;;5054012;28;20208;-71
2022/01/22 15:34:43;;;;;;;8.83;6.63;;;6.60;99.90;;;;;;5049619;28;20201;-71
2022/01/22 15:37:29;;;;;;;8.48;6.60;;;6.60;99.90;;;;;;5051923;28;20532;-70
2022/01/22 15:40:16;;;;;;;10.52;6.47;;;6.60;99.90;;;;;;5054815;28;20256;-72
2022/01/22 15:43:02;;;;;;;8.30;6.47;;;6.60;99.90;;;;;;5042541;28;20204;-72
2022/01/22 15:45:47;;;;;;;8.00;5.85;;;6.60;99.90;;;;;;5057919;28;20605;-72
2022/01/22 15:48:35;;;;;;;9.97;6.77;;;6.50;99.90;;;;;;5047497;28;20266;-72
2022/01/22 15:51:20;;;;;;;9.50;6.35;;;6.50;99.90;;;;;;5040640;28;20475;-72
2022/01/22 15:54:06;;;;;;;9.63;6.80;;;6.50;99.90;;;;;;5047951;28;20705;-72
2022/01/22 15:56:52;;;;;;;9.93;6.40;;;6.40;99.90;;;;;;5051138;28;20474;-72
2022/01/22 15:59:38;;;;;;;18.17;8.65;;;6.40;99.90;;;;;;5045094;28;20433;-72